Time;durP1;ratioP1;P1;durP2;ratioP2;P2;SDS_P1;SDS_P2;PMS_P1;PMS_P2;Temp;Humidity;BMP_temperature;BMP_pressure;BME280_temperature;BME280_humidity;BME280_pressure;Samples;Min_cycle;Max_cycle;Signal;HPM_P1;HPM_P2
2021/04/02 00:00:15;;;;;;;8.20;5.80;;;8.40;11.90;9.40;101040.00;;;;5086682;28;20446;-85
2021/04/02 00:02:43;;;;;;;8.33;5.97;;;8.40;12.60;9.30;101042.00;;;;5087185;28;20499;-84
2021/04/02 00:05:14;;;;;;;8.87;6.03;;;8.30;13.00;9.20;101051.00;;;;5084330;28;20453;-83
2021/04/02 00:07:42;;;;;;;8.97;6.40;;;8.30;13.90;9.10;101037.00;;;;5088042;28;20537;-84
2021/04/02 00:10:15;;;;;;;9.30;6.77;;;8.20;14.10;9.20;101032.00;;;;5086253;28;20547;-85
2021/04/02 00:12:46;;;;;;;7.87;6.50;;;8.20;14.40;9.10;101032.00;;;;5093056;28;20493;-84
2021/04/02 00:15:18;;;;;;;9.77;6.63;;;8.10;15.10;9.00;68256.00;;;;5099191;28;20442;-83
2021/04/02 00:17:51;;;;;;;13.93;7.60;;;8.10;15.90;9.00;101035.00;;;;5092684;28;20447;-83
2021/04/02 00:20:20;;;;;;;10.53;6.33;;;8.10;15.90;9.00;101051.00;;;;5095926;28;20450;-84
2021/04/02 00:22:47;;;;;;;9.43;6.80;;;8.10;16.40;8.90;101047.00;;;;5111225;28;20469;-84
2021/04/02 00:25:16;;;;;;;9.27;7.50;;;8.00;16.70;8.90;101044.00;;;;5114396;28;20527;-83
2021/04/02 00:27:44;;;;;;;10.70;8.17;;;8.00;16.80;8.90;101043.00;;;;5108883;28;20434;-83
2021/04/02 00:30:18;;;;;;;9.90;7.37;;;8.00;17.30;8.90;101042.00;;;;5092502;28;21124;-83
2021/04/02 00:32:45;;;;;;;12.07;6.37;;;8.00;17.40;8.90;101065.00;;;;5087232;28;20487;-83
2021/04/02 00:35:14;;;;;;;10.33;6.87;;;7.90;18.00;8.80;101065.00;;;;5088308;28;20897;-83
2021/04/02 00:37:43;;;;;;;12.10;7.00;;;7.90;18.50;8.80;68203.00;;;;5086953;28;20474;-84
2021/04/02 00:40:20;;;;;;;10.38;8.73;;;7.90;18.90;9.00;101047.00;;;;5085444;28;20479;-83
2021/04/02 00:42:49;;;;;;;8.90;8.00;;;7.90;18.80;9.00;101050.00;;;;5085806;28;20509;-84
2021/04/02 00:45:20;;;;;;;9.80;8.10;;;7.90;18.70;9.10;101058.00;;;;5103308;28;20413;-83
2021/04/02 00:47:49;;;;;;;10.27;7.80;;;8.00;18.90;9.10;101029.00;;;;5085686;28;20433;-84
2021/04/02 00:50:21;;;;;;;9.65;8.45;;;8.00;19.00;9.10;101046.00;;;;5101614;28;20547;-84
2021/04/02 00:52:48;;;;;;;10.77;8.48;;;8.00;19.30;9.00;68253.00;;;;5084592;28;20892;-84
2021/04/02 00:55:16;;;;;;;12.70;8.07;;;7.90;19.40;9.00;101025.00;;;;5086198;28;21374;-85
2021/04/02 00:57:45;;;;;;;11.25;9.05;;;7.90;19.70;9.00;101053.00;;;;5086333;28;20473;-84
2021/04/02 01:00:14;;;;;;;9.50;8.50;;;7.90;20.00;8.80;100912.00;;;;5078367;28;20421;-85
2021/04/02 01:02:44;;;;;;;11.40;8.98;;;7.90;20.00;8.90;101056.00;;;;5091175;28;20418;-85
2021/04/02 01:05:16;;;;;;;10.10;8.60;;;7.90;20.20;8.90;101042.00;;;;5099073;28;20433;-83
2021/04/02 01:07:47;;;;;;;11.80;9.15;;;7.80;20.70;8.80;101037.00;;;;5100940;28;20426;-86
2021/04/02 01:10:17;;;;;;;11.43;9.10;;;7.80;21.10;8.80;101049.00;;;;5089294;28;20421;-87
2021/04/02 01:12:45;;;;;;;12.45;9.10;;;7.70;21.40;8.80;101044.00;;;;5088017;28;20463;-89
2021/04/02 01:15:23;;;;;;;10.75;9.65;;;7.70;21.80;52.70;160377.00;;;;5095857;28;20420;-85
2021/04/02 01:17:54;;;;;;;10.50;9.00;;;7.70;21.80;8.70;101059.00;;;;5084024;28;20909;-86
2021/04/02 01:20:29;;;;;;;11.63;9.55;;;7.70;22.00;8.70;101029.00;;;;5081804;28;20418;-85
2021/04/02 01:23:00;;;;;;;11.95;9.05;;;7.60;22.70;8.60;68158.00;;;;5091217;28;20422;-86
2021/04/02 01:25:42;;;;;;;11.13;10.02;;;7.60;22.60;8.50;101035.00;;;;5088246;28;20453;-86
2021/04/02 01:28:49;;;;;;;10.75;9.48;;;7.50;23.10;8.60;101045.00;;;;5090878;28;20444;-85
2021/04/02 01:31:18;;;;;;;11.30;10.10;;;7.50;23.80;8.40;101033.00;;;;5079294;28;20937;-85
2021/04/02 01:33:46;;;;;;;11.68;10.57;;;7.50;23.70;8.40;101043.00;;;;5090408;28;20421;-87
2021/04/02 01:36:15;;;;;;;11.95;9.50;;;7.50;23.80;8.40;101020.00;;;;5082388;28;20424;-86
2021/04/02 01:38:43;;;;;;;12.10;9.77;;;7.60;24.70;8.30;101046.00;;;;5086873;28;20445;-86
2021/04/02 01:41:13;;;;;;;11.63;10.40;;;7.40;24.70;217.30;160275.00;;;;5089805;28;20425;-86
2021/04/02 01:43:45;;;;;;;11.90;10.00;;;7.40;25.10;8.30;101046.00;;;;5089470;28;20429;-85
2021/04/02 01:46:18;;;;;;;12.57;10.38;;;7.30;25.00;52.70;160259.00;;;;5089485;28;20418;-86
2021/04/02 01:48:49;;;;;;;12.43;10.40;;;7.40;25.00;8.30;68107.00;;;;5087236;28;20919;-86
2021/04/02 01:51:18;;;;;;;11.68;10.48;;;7.40;25.80;52.70;160255.00;;;;5088814;28;20679;-85
2021/04/02 01:53:50;;;;;;;11.85;10.65;;;7.30;25.70;8.30;101054.00;;;;5087594;28;20410;-88
2021/04/02 01:56:24;;;;;;;11.82;10.00;;;7.30;25.80;217.30;160259.00;;;;5092369;28;20432;-85
2021/04/02 01:58:53;;;;;;;13.82;10.43;;;7.30;26.20;8.20;68076.00;;;;5090801;28;20418;-85
2021/04/02 02:01:33;;;;;;;11.75;10.60;;;7.30;26.60;8.20;68084.00;;;;5091691;28;20466;-86
2021/04/02 02:04:01;;;;;;;12.20;11.00;;;7.30;26.40;8.30;101054.00;;;;5095248;28;20418;-86
2021/04/02 02:06:32;;;;;;;11.95;10.75;;;7.30;26.90;217.30;160234.00;;;;5090226;28;20427;-85
2021/04/02 02:09:22;;;;;;;12.30;11.10;;;7.20;27.00;8.20;101046.00;;;;5087166;28;20418;-86
2021/04/02 02:11:54;;;;;;;13.60;11.63;;;7.20;26.80;8.20;68075.00;;;;5096048;28;20410;-84
2021/04/02 02:14:34;;;;;;;12.45;11.15;;;7.30;26.90;8.20;101045.00;;;;5109292;28;20418;-84
2021/04/02 02:17:20;;;;;;;12.23;11.02;;;7.20;26.80;8.20;101051.00;;;;5103673;28;20433;-84
2021/04/02 02:19:50;;;;;;;12.68;11.38;;;7.20;27.00;8.20;101047.00;;;;5086605;28;20421;-84
2021/04/02 02:22:20;;;;;;;12.85;11.57;;;7.20;26.90;8.10;101021.00;;;;5084752;28;20425;-84
2021/04/02 02:24:57;;;;;;;12.75;11.20;;;7.10;26.80;8.20;101027.00;;;;5083125;28;21123;-84
2021/04/02 02:27:25;;;;;;;13.07;11.65;;;7.10;27.00;8.10;101027.00;;;;5097028;28;20486;-84
2021/04/02 02:29:56;;;;;;;12.70;11.40;;;7.10;27.00;8.10;101037.00;;;;5099972;28;20418;-85
2021/04/02 02:32:26;;;;;;;11.90;10.80;;;7.10;27.10;8.00;101034.00;;;;5102593;28;20425;-85
2021/04/02 02:34:54;;;;;;;12.48;11.27;;;7.10;27.30;8.10;101031.00;;;;5097631;28;20417;-84
2021/04/02 02:37:23;;;;;;;14.70;12.00;;;7.10;27.30;8.10;101023.00;;;;5084482;28;20436;-84
2021/04/02 02:39:53;;;;;;;12.47;11.27;;;7.00;27.40;8.00;101016.00;;;;5090488;28;20429;-84
2021/04/02 02:42:22;;;;;;;12.60;11.30;;;7.00;27.30;52.70;160151.00;;;;5086919;28;20467;-84
2021/04/02 02:44:50;;;;;;;13.50;12.10;;;7.00;27.40;8.10;68061.00;;;;5102113;28;20410;-85
2021/04/02 02:47:18;;;;;;;12.90;11.60;;;7.00;27.60;8.10;101024.00;;;;5098478;28;20433;-86
2021/04/02 02:49:54;;;;;;;14.10;12.80;;;7.00;27.90;8.20;101021.00;;;;5103868;28;20429;-86
2021/04/02 02:52:23;;;;;;;13.35;12.05;;;7.00;28.00;8.20;101035.00;;;;5108162;28;20466;-86
2021/04/02 02:54:52;;;;;;;13.02;11.63;;;7.00;28.00;8.10;101030.00;;;;5100623;28;20414;-85
2021/04/02 02:57:21;;;;;;;11.88;10.68;;;7.00;27.50;8.10;101033.00;;;;5103772;28;20418;-85
2021/04/02 02:59:51;;;;;;;11.52;10.43;;;7.10;27.40;8.10;101042.00;;;;5110911;28;20410;-84
2021/04/02 03:02:20;;;;;;;11.90;10.80;;;7.10;27.00;8.20;101042.00;;;;5092023;28;20936;-85
2021/04/02 03:04:50;;;;;;;11.93;10.70;;;7.10;26.70;52.70;160204.00;;;;5091815;28;20413;-84
2021/04/02 03:07:22;;;;;;;13.60;11.10;;;7.20;26.90;8.20;101038.00;;;;5099220;28;20921;-84
2021/04/02 03:09:54;;;;;;;11.00;9.90;;;7.20;25.90;217.30;160224.00;;;;5089174;28;20419;-83
2021/04/02 03:12:22;;;;;;;11.13;10.02;;;7.30;25.70;8.30;101028.00;;;;5090090;28;20425;-84
2021/04/02 03:14:53;;;;;;;10.80;9.70;;;7.30;25.30;8.30;101019.00;;;;5092296;28;20421;-83
2021/04/02 03:17:23;;;;;;;11.32;10.13;;;7.30;25.20;8.30;101040.00;;;;5105031;28;20425;-84
2021/04/02 03:19:54;;;;;;;11.40;10.20;;;7.30;25.20;8.30;100792.00;;;;5084842;28;20491;-83
2021/04/02 03:22:29;;;;;;;10.77;9.77;;;7.30;25.10;217.30;160265.00;;;;5112698;28;20425;-84
2021/04/02 03:25:11;;;;;;;10.90;9.80;;;7.30;25.00;217.30;160275.00;;;;5115017;28;20443;-83
2021/04/02 03:27:48;;;;;;;10.40;9.30;;;7.30;24.70;217.30;160313.00;;;;5111301;28;20477;-82
2021/04/02 03:30:27;;;;;;;10.75;9.75;;;7.30;24.40;8.50;101037.00;;;;5124890;28;20497;-84
2021/04/02 03:33:04;;;;;;;9.50;8.50;;;7.50;23.40;8.50;101045.00;;;;5109221;28;20438;-84
2021/04/02 03:35:35;;;;;;;11.00;9.10;;;7.60;22.80;8.50;101055.00;;;;5086311;28;20410;-84
2021/04/02 03:38:10;;;;;;;10.13;9.23;;;7.60;21.90;8.70;101032.00;;;;5086538;28;20429;-84
2021/04/02 03:40:39;;;;;;;10.82;8.90;;;7.70;21.90;8.70;101020.00;;;;5086904;28;20479;-83
2021/04/02 03:43:10;;;;;;;9.97;8.90;;;7.70;21.40;8.70;101031.00;;;;5086898;28;20804;-85
2021/04/02 03:45:41;;;;;;;9.65;8.75;;;7.70;20.90;8.70;101029.00;;;;5095157;28;20440;-84
2021/04/02 03:48:11;;;;;;;8.75;8.05;;;7.70;20.60;52.70;160430.00;;;;5109937;28;20426;-83
2021/04/02 03:50:45;;;;;;;9.03;8.13;;;7.80;20.40;8.70;101020.00;;;;5100819;28;20408;-84
2021/04/02 03:53:24;;;;;;;9.13;8.23;;;7.70;20.50;8.60;101039.00;;;;5127479;28;20477;-84
2021/04/02 03:55:56;;;;;;;9.80;8.80;;;7.70;20.20;8.60;101041.00;;;;5112070;28;20408;-84
2021/04/02 03:58:25;;;;;;;9.68;8.68;;;7.60;20.10;8.50;101037.00;;;;5104774;28;20421;-85
2021/04/02 04:00:59;;;;;;;9.60;8.70;;;7.60;20.20;8.50;101053.00;;;;5098969;28;20484;-84
2021/04/02 04:03:28;;;;;;;9.60;8.70;;;7.50;20.70;8.40;68131.00;;;;5114501;28;20436;-84
2021/04/02 04:06:00;;;;;;;9.70;8.80;;;7.50;20.40;8.40;68116.00;;;;5131758;28;20432;-85
2021/04/02 04:08:32;;;;;;;9.30;8.40;;;7.50;20.70;217.30;160297.00;;;;5110052;28;20416;-84
2021/04/02 04:11:07;;;;;;;9.50;8.40;;;7.40;21.50;8.40;101042.00;;;;5103503;28;20413;-84
2021/04/02 04:13:42;;;;;;;9.80;8.65;;;7.40;20.90;8.30;101041.00;;;;5090312;28;20434;-85
2021/04/02 04:16:16;;;;;;;9.80;8.90;;;7.20;20.80;8.40;68118.00;;;;5100225;28;21070;-84
2021/04/02 04:18:48;;;;;;;10.07;9.02;;;7.30;21.30;8.30;101036.00;;;;5097423;28;21627;-84
2021/04/02 04:21:18;;;;;;;8.80;8.00;;;7.30;21.10;8.30;101045.00;;;;5086195;28;20414;-84
2021/04/02 04:23:56;;;;;;;9.73;8.83;;;7.10;21.20;8.30;101048.00;;;;5105814;28;20412;-85
2021/04/02 04:26:27;;;;;;;10.18;9.27;;;7.20;21.10;8.30;101046.00;;;;5087274;28;20426;-84
2021/04/02 04:28:56;;;;;;;10.30;9.30;;;7.20;21.00;8.20;101038.00;;;;5080021;28;20406;-85
2021/04/02 04:31:26;;;;;;;9.68;8.70;;;7.20;20.90;52.70;160224.00;;;;5088970;28;20422;-84
2021/04/02 04:33:56;;;;;;;9.00;8.20;;;7.10;20.60;8.10;101050.00;;;;5086215;28;20429;-84
2021/04/02 04:36:24;;;;;;;10.20;9.20;;;7.10;20.40;217.30;160160.00;;;;5086144;28;20435;-84
2021/04/02 04:38:55;;;;;;;10.47;9.40;;;7.10;20.30;8.00;101038.00;;;;5099554;28;20504;-84
2021/04/02 04:41:25;;;;;;;10.35;9.45;;;7.10;19.90;8.00;101054.00;;;;5093158;28;20424;-84
2021/04/02 04:43:55;;;;;;;9.60;8.70;;;7.00;19.80;8.00;101055.00;;;;5106352;28;20398;-85
2021/04/02 04:46:24;;;;;;;9.23;8.32;;;7.00;19.60;8.00;101047.00;;;;5088661;28;20433;-84
2021/04/02 04:48:51;;;;;;;9.00;8.20;;;7.00;19.40;8.00;101047.00;;;;5089024;28;20442;-85
2021/04/02 04:51:22;;;;;;;8.82;8.02;;;7.00;19.00;8.10;101049.00;;;;5087229;28;20931;-84
2021/04/02 04:53:56;;;;;;;8.90;8.15;;;7.10;18.50;217.30;160151.00;;;;5087828;28;20429;-84
2021/04/02 04:56:27;;;;;;;8.68;7.88;;;7.10;17.90;8.20;101046.00;;;;5089500;28;20425;-84
2021/04/02 04:59:01;;;;;;;8.67;7.97;;;7.20;17.30;8.30;101053.00;;;;5108218;28;20418;-84
2021/04/02 05:01:35;;;;;;;8.93;8.02;;;7.30;16.30;8.40;101022.00;;;;5109079;28;20436;-84
2021/04/02 05:04:04;;;;;;;9.15;8.05;;;7.50;15.40;8.50;101057.00;;;;5109428;28;21055;-85
2021/04/02 05:06:34;;;;;;;8.32;7.43;;;7.60;15.10;8.50;101048.00;;;;5109831;28;20436;-83
2021/04/02 05:09:05;;;;;;;8.60;7.70;;;7.70;13.80;8.60;101040.00;;;;5124101;28;20413;-84
2021/04/02 05:11:36;;;;;;;8.23;7.43;;;7.70;13.90;8.70;101056.00;;;;5107869;28;20417;-83
2021/04/02 05:14:05;;;;;;;8.50;7.70;;;7.70;13.50;8.70;101054.00;;;;5109541;28;20429;-84
2021/04/02 05:16:33;;;;;;;8.27;7.47;;;7.80;13.40;217.30;160478.00;;;;5101307;28;20429;-84
2021/04/02 05:19:02;;;;;;;8.65;7.78;;;7.90;13.20;8.80;101050.00;;;;5083351;28;20914;-84
2021/04/02 05:21:30;;;;;;;7.30;6.60;;;7.90;12.80;8.80;101056.00;;;;5090689;28;20449;-84
2021/04/02 05:23:57;;;;;;;6.97;6.38;;;7.90;12.50;8.90;101059.00;;;;5092786;28;20446;-84
2021/04/02 05:26:26;;;;;;;7.57;6.88;;;7.90;12.60;8.90;101054.00;;;;5105815;28;20422;-84
2021/04/02 05:28:57;;;;;;;7.32;6.63;;;8.00;12.10;217.30;160503.00;;;;5113886;28;20437;-85
2021/04/02 05:31:27;;;;;;;7.72;6.93;;;8.00;12.00;217.30;160571.00;;;;5111541;28;20426;-86
2021/04/02 05:34:12;;;;;;;7.28;6.40;;;8.00;12.20;9.00;68247.00;;;;5112380;28;20417;-85
2021/04/02 05:36:40;;;;;;;7.10;6.40;;;8.00;12.10;217.30;160583.00;;;;5110696;28;20405;-86
2021/04/02 05:39:08;;;;;;;7.93;7.13;;;8.10;12.20;9.20;68293.00;;;;5110809;28;20436;-89
2021/04/02 05:41:46;;;;;;;7.85;7.15;;;8.10;12.10;9.20;101069.00;;;;5111804;28;20434;-89
2021/04/02 05:44:20;;;;;;;7.05;6.45;;;8.20;12.50;9.20;101060.00;;;;5092352;28;20461;-87
2021/04/02 05:46:49;;;;;;;7.60;6.80;;;8.20;12.00;9.20;101073.00;;;;5091006;28;20422;-87
2021/04/02 05:49:21;;;;;;;7.80;7.10;;;8.20;12.00;217.30;160706.00;;;;5087652;28;20929;-89
2021/04/02 05:51:50;;;;;;;7.75;7.05;;;8.20;12.10;52.70;160722.00;;;;5089196;28;20449;-87
2021/04/02 05:54:26;;;;;;;7.00;6.40;;;8.20;12.50;9.40;101080.00;;;;5093145;28;20605;-85
2021/04/02 05:56:56;;;;;;;7.65;6.95;;;8.30;11.70;217.30;160769.00;;;;5095860;28;20454;-86
2021/04/02 05:59:25;;;;;;;7.80;7.00;;;8.40;11.70;217.30;160817.00;;;;5089063;28;20408;-85
2021/04/02 06:01:53;;;;;;;7.85;7.15;;;8.50;11.40;9.70;101087.00;;;;5095081;28;20485;-87
2021/04/02 06:04:21;;;;;;;7.75;7.05;;;8.50;10.80;217.30;160864.00;;;;5101138;28;20401;-86
2021/04/02 06:06:49;;;;;;;6.97;6.35;;;8.60;10.70;9.90;101089.00;;;;5110081;28;20528;-90
2021/04/02 06:09:16;;;;;;;7.60;6.40;;;8.70;10.40;9.90;101096.00;;;;5113408;28;20414;-88
2021/04/02 06:11:44;;;;;;;7.78;7.07;;;8.70;10.40;10.10;101096.00;;;;5092968;28;20425;-87
2021/04/02 06:14:12;;;;;;;7.43;6.80;;;8.80;10.40;10.20;101077.00;;;;5088301;28;20433;-87
2021/04/02 06:16:47;;;;;;;6.90;6.30;;;8.90;10.00;10.30;101093.00;;;;5090434;28;20937;-87
2021/04/02 06:19:14;;;;;;;7.85;7.05;;;8.90;9.80;10.40;101096.00;;;;5090463;28;20437;-87
2021/04/02 06:21:49;;;;;;;8.40;6.78;;;9.00;9.60;10.40;101079.00;;;;5084582;28;20413;-85
2021/04/02 06:24:34;;;;;;;7.57;6.97;;;9.10;9.60;10.60;68601.00;;;;5084299;28;20520;-84
2021/04/02 06:27:04;;;;;;;7.80;7.10;;;9.10;9.60;10.70;101093.00;;;;5110662;28;20413;-84
2021/04/02 06:29:38;;;;;;;7.72;7.03;;;9.20;9.70;10.60;101078.00;;;;5099537;28;20432;-84
2021/04/02 06:32:08;;;;;;;7.30;6.60;;;9.20;8.80;10.50;101093.00;;;;5106983;28;20426;-83
2021/04/02 06:34:45;;;;;;;7.18;6.57;;;9.20;8.70;10.60;101094.00;;;;5105964;28;20416;-83
2021/04/02 06:37:15;;;;;;;7.13;6.53;;;9.30;8.70;10.60;101100.00;;;;5105944;28;20444;-83
2021/04/02 06:39:51;;;;;;;7.38;6.68;;;9.30;8.60;10.60;101101.00;;;;5109225;28;20390;-87
2021/04/02 06:42:29;;;;;;;6.80;6.10;;;9.20;8.70;10.50;101095.00;;;;5112306;28;20406;-90
2021/04/02 06:45:01;;;;;;;7.60;6.90;;;9.20;8.80;217.30;161232.00;;;;5110906;28;20518;-87
2021/04/02 06:47:35;;;;;;;7.50;6.80;;;9.10;8.90;10.60;101109.00;;;;5107631;28;20414;-87
2021/04/02 06:50:16;;;;;;;7.20;6.50;;;9.30;9.10;10.70;101101.00;;;;5101196;28;20408;-86
2021/04/02 06:52:49;;;;;;;7.65;6.95;;;9.30;8.50;10.80;101093.00;;;;5107761;28;20429;-87
2021/04/02 06:55:17;;;;;;;7.57;6.82;;;9.40;8.30;10.90;101108.00;;;;5110581;28;20410;-86
2021/04/02 06:57:48;;;;;;;7.50;6.80;;;9.40;8.00;10.80;101103.00;;;;5109682;28;20452;-86
2021/04/02 07:00:22;;;;;;;7.03;6.43;;;9.50;7.90;217.30;161305.00;;;;5097800;28;20795;-86
2021/04/02 07:02:52;;;;;;;7.40;6.70;;;9.40;7.30;10.70;101120.00;;;;5094090;28;20467;-85
2021/04/02 07:05:22;;;;;;;7.18;6.53;;;9.40;7.70;10.90;101118.00;;;;5090269;28;20464;-85
2021/04/02 07:08:00;;;;;;;7.77;6.97;;;9.50;7.60;10.90;101068.00;;;;5094345;28;20782;-85
2021/04/02 07:10:31;;;;;;;7.90;7.20;;;9.60;7.40;10.90;101115.00;;;;5090649;28;20961;-86
2021/04/02 07:13:02;;;;;;;6.95;6.35;;;9.60;7.20;10.90;101131.00;;;;5088486;28;20418;-86
2021/04/02 07:15:33;;;;;;;8.02;7.32;;;9.60;7.70;10.90;68689.00;;;;5081647;28;20424;-86
2021/04/02 07:18:03;;;;;;;8.07;7.28;;;9.70;7.80;10.80;101116.00;;;;5096327;28;20438;-88
2021/04/02 07:20:31;;;;;;;8.20;7.40;;;9.50;7.80;10.80;101110.00;;;;5095044;28;20425;-88
2021/04/02 07:22:59;;;;;;;8.90;8.10;;;9.50;8.20;10.90;101127.00;;;;5098777;28;20487;-86
2021/04/02 07:25:28;;;;;;;11.73;10.63;;;9.50;8.50;11.00;101116.00;;;;5101541;28;20425;-86
2021/04/02 07:27:57;;;;;;;7.97;7.18;;;9.50;8.90;11.00;101131.00;;;;5103281;28;20454;-87
2021/04/02 07:30:32;;;;;;;8.13;7.32;;;9.60;8.30;10.90;101116.00;;;;5094698;28;20452;-88
2021/04/02 07:33:03;;;;;;;8.70;7.90;;;9.50;8.30;217.30;161342.00;;;;5101967;28;20424;-86
2021/04/02 07:35:31;;;;;;;8.60;7.80;;;9.50;8.50;10.90;101123.00;;;;5093603;28;20485;-87
2021/04/02 07:38:00;;;;;;;8.52;7.72;;;9.50;8.50;10.90;101121.00;;;;5096377;28;20646;-87
2021/04/02 07:40:30;;;;;;;9.07;8.18;;;9.50;8.30;11.00;101123.00;;;;5093508;28;20429;-87
2021/04/02 07:43:02;;;;;;;8.90;8.10;;;9.60;8.40;11.20;101127.00;;;;5108104;28;20436;-88
2021/04/02 07:45:32;;;;;;;8.90;8.10;;;9.70;8.10;11.30;101135.00;;;;5111933;28;20406;-87
2021/04/02 07:48:13;;;;;;;9.20;8.20;;;9.80;7.80;11.40;101120.00;;;;5113350;28;20436;-87
2021/04/02 07:50:46;;;;;;;9.25;8.35;;;9.90;7.20;11.50;101124.00;;;;5096277;28;20525;-82
2021/04/02 07:53:20;;;;;;;8.80;8.00;;;10.00;6.90;11.50;101121.00;;;;5096859;28;20483;-82
2021/04/02 07:55:53;;;;;;;8.13;7.32;;;10.00;6.70;11.30;101117.00;;;;5098942;28;20410;-82
2021/04/02 07:58:25;;;;;;;9.05;8.25;;;9.90;7.40;217.30;161604.00;;;;5096929;28;20425;-82
2021/04/02 08:00:56;;;;;;;8.90;8.10;;;10.00;6.40;11.60;101124.00;;;;5094663;28;20420;-83
2021/04/02 08:03:26;;;;;;;8.20;7.40;;;10.10;6.40;11.60;101124.00;;;;5100823;28;20422;-81
2021/04/02 08:06:07;;;;;;;8.35;7.53;;;10.10;5.70;11.60;101120.00;;;;5103997;28;20419;-84
2021/04/02 08:08:45;;;;;;;8.55;7.85;;;10.10;5.70;11.60;101127.00;;;;5100139;28;20433;-85
2021/04/02 08:11:20;;;;;;;8.40;7.60;;;10.10;5.10;11.60;101129.00;;;;5112047;28;20453;-86
2021/04/02 08:13:54;;;;;;;8.25;7.45;;;10.20;5.30;11.50;101130.00;;;;5110378;28;20422;-84
2021/04/02 08:16:46;;;;;;;8.88;7.97;;;10.10;4.90;11.50;101131.00;;;;5099591;28;20498;-87
2021/04/02 08:19:20;;;;;;;8.70;7.90;;;10.10;5.20;11.50;101135.00;;;;5110153;28;20417;-86
2021/04/02 08:21:52;;;;;;;8.30;7.53;;;10.10;5.00;11.40;101124.00;;;;5109524;28;20422;-86
2021/04/02 08:24:23;;;;;;;8.50;7.67;;;10.10;4.90;11.20;101131.00;;;;5103431;28;20429;-86
2021/04/02 08:26:51;;;;;;;8.82;8.02;;;10.00;5.30;11.50;101130.00;;;;5106403;28;20459;-85
2021/04/02 08:29:21;;;;;;;9.07;8.18;;;10.10;5.50;11.70;101132.00;;;;5107502;28;20422;-85
2021/04/02 08:31:53;;;;;;;8.40;7.60;;;10.20;5.00;11.70;101132.00;;;;5095878;28;20459;-86
2021/04/02 08:34:24;;;;;;;8.48;7.68;;;10.30;4.60;11.70;101134.00;;;;5092038;28;20426;-85
2021/04/02 08:36:54;;;;;;;8.63;7.82;;;10.20;4.50;11.80;101137.00;;;;5094431;28;20779;-86
2021/04/02 08:39:24;;;;;;;8.90;8.10;;;10.30;4.50;11.80;68881.00;;;;5100240;28;20425;-85
2021/04/02 08:41:56;;;;;;;8.40;7.60;;;10.30;4.10;11.70;101151.00;;;;5103627;28;21090;-85
2021/04/02 08:44:32;;;;;;;8.75;7.95;;;10.30;4.40;11.70;101152.00;;;;5102696;28;20430;-84
2021/04/02 08:47:04;;;;;;;8.75;7.95;;;10.20;4.40;11.40;101159.00;;;;5096082;28;20421;-84
2021/04/02 08:49:40;;;;;;;8.90;8.10;;;10.10;4.40;11.50;101148.00;;;;5098250;28;20890;-82
2021/04/02 08:52:10;;;;;;;8.57;7.78;;;10.10;4.60;11.50;101142.00;;;;5095070;28;20854;-82
2021/04/02 08:54:38;;;;;;;8.65;7.85;;;10.10;4.50;217.30;161755.00;;;;5102882;28;20429;-83
2021/04/02 08:57:07;;;;;;;8.70;7.90;;;10.20;4.50;12.00;101162.00;;;;5090210;28;21331;-84
2021/04/02 08:59:35;;;;;;;8.50;7.70;;;10.30;4.30;12.00;101143.00;;;;5092675;28;20433;-84
2021/04/02 09:02:05;;;;;;;11.30;10.15;;;10.50;3.80;11.90;101136.00;;;;5095261;28;20410;-84
2021/04/02 09:04:34;;;;;;;14.27;12.68;;;10.40;3.40;11.90;101134.00;;;;5096113;28;20459;-83
2021/04/02 09:07:01;;;;;;;9.48;8.57;;;10.40;3.40;12.00;101154.00;;;;5095900;28;20414;-84
2021/04/02 09:09:31;;;;;;;8.93;8.02;;;10.50;3.00;11.80;101140.00;;;;5089814;28;20436;-83
2021/04/02 09:12:10;;;;;;;9.85;8.95;;;10.40;3.70;11.80;101143.00;;;;5102041;28;20430;-83
2021/04/02 09:14:44;;;;;;;8.80;8.00;;;10.30;3.50;12.00;101156.00;;;;5099468;28;21072;-82
2021/04/02 09:17:21;;;;;;;8.88;8.07;;;10.40;3.60;217.30;161862.00;;;;5103709;28;20410;-82
2021/04/02 09:19:50;;;;;;;8.30;7.50;;;10.40;3.20;12.10;101142.00;;;;5119397;28;20909;-83
2021/04/02 09:22:18;;;;;;;8.45;7.30;;;10.40;3.10;12.10;101152.00;;;;5109657;28;20406;-84
2021/04/02 09:24:46;;;;;;;8.45;7.65;;;10.50;2.40;12.10;101140.00;;;;5105474;28;20409;-82
2021/04/02 09:27:19;;;;;;;8.30;7.60;;;10.40;2.80;12.20;101141.00;;;;5112298;28;20429;-81
2021/04/02 09:29:47;;;;;;;8.50;7.80;;;10.60;2.70;12.30;101149.00;;;;5114408;28;20493;-83
2021/04/02 09:32:16;;;;;;;8.43;7.63;;;10.60;2.00;12.00;101151.00;;;;5114387;28;21114;-84
2021/04/02 09:34:44;;;;;;;9.10;8.20;;;10.50;2.00;12.10;101138.00;;;;5107811;28;20435;-83
2021/04/02 09:37:12;;;;;;;8.38;7.55;;;10.60;1.90;12.10;101125.00;;;;5105138;28;20430;-84
2021/04/02 09:39:41;;;;;;;10.80;9.70;;;10.60;1.90;12.20;101138.00;;;;5128805;28;20429;-83
2021/04/02 09:42:15;;;;;;;8.85;8.05;;;10.80;2.50;12.40;101134.00;;;;5108909;28;20404;-84
2021/04/02 09:44:47;;;;;;;7.70;7.00;;;10.70;1.70;12.40;101138.00;;;;5106090;28;20651;-82
2021/04/02 09:47:16;;;;;;;7.95;7.15;;;10.90;1.10;217.30;162060.00;;;;5112916;28;20451;-83
2021/04/02 09:49:46;;;;;;;8.50;7.50;;;10.90;1.00;12.50;101113.00;;;;5104942;28;20410;-84
2021/04/02 09:52:14;;;;;;;8.10;7.30;;;10.90;1.10;12.80;101127.00;;;;5093882;28;20466;-84
2021/04/02 09:54:41;;;;;;;8.00;7.30;;;11.20;1.00;13.00;101121.00;;;;5095276;28;20543;-83
2021/04/02 09:57:10;;;;;;;7.30;6.70;;;11.30;1.00;13.30;101127.00;;;;5087326;28;20425;-83
2021/04/02 09:59:38;;;;;;;7.95;7.25;;;11.50;1.00;13.40;101139.00;;;;5092609;28;20470;-84
2021/04/02 10:02:06;;;;;;;7.80;7.10;;;11.70;1.00;13.40;101120.00;;;;5088003;28;20445;-84
2021/04/02 10:04:35;;;;;;;9.32;8.38;;;11.70;1.00;13.40;101126.00;;;;5089203;28;20422;-83
2021/04/02 10:07:02;;;;;;;9.40;8.50;;;11.60;1.00;13.60;69272.00;;;;5092525;28;20413;-85
2021/04/02 10:09:30;;;;;;;9.95;8.95;;;11.70;1.00;13.80;69332.00;;;;5085126;28;20473;-83
2021/04/02 10:11:57;;;;;;;14.05;12.57;;;11.90;1.00;14.00;101115.00;;;;5090244;28;20426;-83
2021/04/02 10:14:25;;;;;;;10.30;9.30;;;12.10;1.00;13.90;101130.00;;;;5091013;28;20515;-84
2021/04/02 10:16:53;;;;;;;12.32;11.13;;;12.10;1.00;14.10;101112.00;;;;5087763;28;20421;-84
2021/04/02 10:19:20;;;;;;;8.35;7.47;;;12.10;1.00;14.10;101112.00;;;;5096672;28;20409;-83
2021/04/02 10:21:48;;;;;;;7.00;6.40;;;12.20;1.00;13.90;101121.00;;;;5123840;28;20434;-83
2021/04/02 10:24:16;;;;;;;7.68;6.97;;;12.10;1.00;13.70;101118.00;;;;5103722;28;20773;-84
2021/04/02 10:26:45;;;;;;;7.80;7.10;;;12.00;1.00;13.80;69325.00;;;;5090099;28;20453;-84
2021/04/02 10:29:13;;;;;;;9.40;8.50;;;12.00;1.00;14.10;101108.00;;;;5080750;28;20410;-84
2021/04/02 10:31:41;;;;;;;8.00;7.20;;;12.10;1.00;14.30;101096.00;;;;5088559;28;20487;-84
2021/04/02 10:34:09;;;;;;;12.57;11.27;;;12.40;1.00;14.30;101091.00;;;;5089336;28;20937;-84
2021/04/02 10:36:36;;;;;;;8.38;7.57;;;12.50;1.00;14.40;69470.00;;;;5088666;28;20422;-83
2021/04/02 10:39:10;;;;;;;8.55;7.70;;;12.50;1.00;14.20;101125.00;;;;5089621;28;20502;-83
2021/04/02 10:41:37;;;;;;;8.68;7.88;;;12.30;1.00;13.90;101091.00;;;;5085946;28;20444;-84
2021/04/02 10:44:07;;;;;;;8.30;7.50;;;12.10;1.00;13.80;101113.00;;;;5087660;28;20497;-84
2021/04/02 10:46:35;;;;;;;8.75;7.95;;;11.90;1.00;14.10;101103.00;;;;5084683;28;20444;-84
2021/04/02 10:49:03;;;;;;;8.45;7.65;;;12.10;1.00;14.20;101109.00;;;;5099286;28;20476;-85
2021/04/02 10:51:30;;;;;;;8.38;7.57;;;12.20;1.00;14.30;101089.00;;;;5098248;28;20420;-85
2021/04/02 10:54:01;;;;;;;7.80;7.00;;;12.30;1.00;14.30;101095.00;;;;5104934;28;20422;-87
2021/04/02 10:56:31;;;;;;;8.70;7.90;;;12.30;1.00;14.70;101084.00;;;;5095452;28;20463;-85
2021/04/02 10:58:59;;;;;;;8.50;7.80;;;12.60;1.00;15.10;101091.00;;;;5091665;28;20478;-85
2021/04/02 11:01:28;;;;;;;7.90;7.10;;;12.90;1.00;217.30;163110.00;;;;5094709;28;20911;-85
2021/04/02 11:03:56;;;;;;;8.57;7.78;;;12.90;1.00;15.40;101093.00;;;;5088830;28;20454;-84
2021/04/02 11:06:24;;;;;;;8.80;7.90;;;13.10;1.00;217.30;163386.00;;;;5107839;28;20422;-85
2021/04/02 11:08:51;;;;;;;7.95;7.25;;;13.30;1.00;15.60;101085.00;;;;5104299;28;20425;-84
2021/04/02 11:11:20;;;;;;;7.90;7.15;;;13.40;1.00;15.80;101101.00;;;;5104945;28;20436;-85